sensor_id;sensor_type;location;lat;lon;timestamp;temperature;humidity
19970;DHT22;10146;47.754;9.566;2022-11-06T00:02:21;4.80;99.90
19970;DHT22;10146;47.754;9.566;2022-11-06T00:04:47;4.80;99.90
19970;DHT22;10146;47.754;9.566;2022-11-06T00:07:12;4.80;99.90
19970;DHT22;10146;47.754;9.566;2022-11-06T00:09:38;4.80;99.90
19970;DHT22;10146;47.754;9.566;2022-11-06T00:12:04;4.80;99.90
19970;DHT22;10146;47.754;9.566;2022-11-06T00:14:29;4.80;99.90
19970;DHT22;10146;47.754;9.566;2022-11-06T00:16:55;4.80;99.90
19970;DHT22;10146;47.754;9.566;2022-11-06T00:19:21;4.80;99.90
19970;DHT22;10146;47.754;9.566;2022-11-06T00:21:46;4.80;99.90
19970;DHT22;10146;47.754;9.566;2022-11-06T00:24:13;4.90;99.90
19970;DHT22;10146;47.754;9.566;2022-11-06T00:26:40;4.80;99.90
19970;DHT22;10146;47.754;9.566;2022-11-06T00:29:06;4.70;99.90
19970;DHT22;10146;47.754;9.566;2022-11-06T00:31:34;4.80;99.90
19970;DHT22;10146;47.754;9.566;2022-11-06T00:34:00;4.80;99.90
19970;DHT22;10146;47.754;9.566;2022-11-06T00:36:27;4.70;99.90
19970;DHT22;10146;47.754;9.566;2022-11-06T00:38:55;4.70;99.90
19970;DHT22;10146;47.754;9.566;2022-11-06T00:41:22;4.60;99.90
19970;DHT22;10146;47.754;9.566;2022-11-06T00:43:50;4.70;99.90
19970;DHT22;10146;47.754;9.566;2022-11-06T00:46:17;4.70;99.90
19970;DHT22;10146;47.754;9.566;2022-11-06T00:48:43;4.70;99.90
19970;DHT22;10146;47.754;9.566;2022-11-06T00:51:17;4.70;99.90
19970;DHT22;10146;47.754;9.566;2022-11-06T00:53:43;4.70;99.90
19970;DHT22;10146;47.754;9.566;2022-11-06T00:56:11;4.70;99.90
19970;DHT22;10146;47.754;9.566;2022-11-06T00:58:38;4.70;99.90
19970;DHT22;10146;47.754;9.566;2022-11-06T01:01:19;4.70;99.90
19970;DHT22;10146;47.754;9.566;2022-11-06T01:03:47;4.60;99.90
19970;DHT22;10146;47.754;9.566;2022-11-06T01:06:21;4.70;99.90
19970;DHT22;10146;47.754;9.566;2022-11-06T01:08:47;4.70;99.90
19970;DHT22;10146;47.754;9.566;2022-11-06T01:11:31;4.60;99.90
19970;DHT22;10146;47.754;9.566;2022-11-06T01:13:58;4.60;99.90
19970;DHT22;10146;47.754;9.566;2022-11-06T01:16:25;4.50;99.90
19970;DHT22;10146;47.754;9.566;2022-11-06T01:18:51;4.50;99.90
19970;DHT22;10146;47.754;9.566;2022-11-06T01:21:33;4.50;99.90
19970;DHT22;10146;47.754;9.566;2022-11-06T01:24:13;4.40;99.90
19970;DHT22;10146;47.754;9.566;2022-11-06T01:26:40;4.40;99.90
19970;DHT22;10146;47.754;9.566;2022-11-06T01:29:09;4.40;99.90
19970;DHT22;10146;47.754;9.566;2022-11-06T01:31:35;4.30;99.90
19970;DHT22;10146;47.754;9.566;2022-11-06T01:34:01;4.30;99.90
19970;DHT22;10146;47.754;9.566;2022-11-06T01:36:28;4.30;99.90
19970;DHT22;10146;47.754;9.566;2022-11-06T01:38:56;4.30;99.90
19970;DHT22;10146;47.754;9.566;2022-11-06T01:41:28;4.30;99.90
19970;DHT22;10146;47.754;9.566;2022-11-06T01:44:58;4.30;99.90
19970;DHT22;10146;47.754;9.566;2022-11-06T01:46:50;4.30;99.90
19970;DHT22;10146;47.754;9.566;2022-11-06T01:49:16;4.30;99.90
19970;DHT22;10146;47.754;9.566;2022-11-06T01:52:06;4.30;99.90
19970;DHT22;10146;47.754;9.566;2022-11-06T01:54:34;4.20;99.90
19970;DHT22;10146;47.754;9.566;2022-11-06T01:57:02;4.20;99.90
19970;DHT22;10146;47.754;9.566;2022-11-06T01:59:31;4.30;99.90
19970;DHT22;10146;47.754;9.566;2022-11-06T02:01:58;4.30;99.90
19970;DHT22;10146;47.754;9.566;2022-11-06T02:04:27;4.20;99.90
19970;DHT22;10146;47.754;9.566;2022-11-06T02:06:55;4.20;99.90
19970;DHT22;10146;47.754;9.566;2022-11-06T02:09:21;4.10;99.90
19970;DHT22;10146;47.754;9.566;2022-11-06T02:11:52;4.00;99.90
19970;DHT22;10146;47.754;9.566;2022-11-06T02:17:14;4.00;99.90
19970;DHT22;10146;47.754;9.566;2022-11-06T02:20:11;4.00;99.90
19970;DHT22;10146;47.754;9.566;2022-11-06T02:28:26;4.00;99.90
19970;DHT22;10146;47.754;9.566;2022-11-06T02:30:55;4.00;99.90
19970;DHT22;10146;47.754;9.566;2022-11-06T02:33:30;4.00;99.90
19970;DHT22;10146;47.754;9.566;2022-11-06T02:36:03;4.00;99.90
19970;DHT22;10146;47.754;9.566;2022-11-06T02:38:37;3.90;99.90
19970;DHT22;10146;47.754;9.566;2022-11-06T02:41:07;4.00;99.90
19970;DHT22;10146;47.754;9.566;2022-11-06T02:43:39;4.00;99.90
19970;DHT22;10146;47.754;9.566;2022-11-06T02:46:23;3.90;99.90
19970;DHT22;10146;47.754;9.566;2022-11-06T02:48:58;3.90;99.90
19970;DHT22;10146;47.754;9.566;2022-11-06T02:51:29;3.90;99.90
19970;DHT22;10146;47.754;9.566;2022-11-06T02:53:59;3.90;99.90
19970;DHT22;10146;47.754;9.566;2022-11-06T02:56:29;3.90;99.90
19970;DHT22;10146;47.754;9.566;2022-11-06T02:59:13;3.80;99.90
19970;DHT22;10146;47.754;9.566;2022-11-06T03:01:53;3.80;99.90
19970;DHT22;10146;47.754;9.566;2022-11-06T03:06:56;3.70;99.90
19970;DHT22;10146;47.754;9.566;2022-11-06T03:09:28;3.70;99.90
19970;DHT22;10146;47.754;9.566;2022-11-06T03:12:06;3.70;99.90
19970;DHT22;10146;47.754;9.566;2022-11-06T03:15:02;3.70;99.90
19970;DHT22;10146;47.754;9.566;2022-11-06T03:23:10;3.60;99.90
19970;DHT22;10146;47.754;9.566;2022-11-06T03:30:58;3.50;99.90
19970;DHT22;10146;47.754;9.566;2022-11-06T03:36:20;3.50;99.90
19970;DHT22;10146;47.754;9.566;2022-11-06T03:38:50;3.40;99.90
19970;DHT22;10146;47.754;9.566;2022-11-06T03:41:41;3.40;99.90
19970;DHT22;10146;47.754;9.566;2022-11-06T03:44:11;3.30;99.90
19970;DHT22;10146;47.754;9.566;2022-11-06T03:46:46;3.30;99.90
19970;DHT22;10146;47.754;9.566;2022-11-06T03:49:19;3.30;99.90
19970;DHT22;10146;47.754;9.566;2022-11-06T03:51:52;3.20;99.90
19970;DHT22;10146;47.754;9.566;2022-11-06T03:54:24;3.20;99.90
19970;DHT22;10146;47.754;9.566;2022-11-06T03:56:57;3.10;99.90
19970;DHT22;10146;47.754;9.566;2022-11-06T03:59:32;3.10;99.90
19970;DHT22;10146;47.754;9.566;2022-11-06T04:02:00;3.10;99.90
19970;DHT22;10146;47.754;9.566;2022-11-06T04:04:31;3.00;99.90
19970;DHT22;10146;47.754;9.566;2022-11-06T04:07:08;3.00;99.90
19970;DHT22;10146;47.754;9.566;2022-11-06T04:09:37;2.90;99.90
19970;DHT22;10146;47.754;9.566;2022-11-06T04:12:24;2.90;99.90
19970;DHT22;10146;47.754;9.566;2022-11-06T04:15:35;2.90;99.90
19970;DHT22;10146;47.754;9.566;2022-11-06T04:18:10;2.90;99.90
19970;DHT22;10146;47.754;9.566;2022-11-06T04:20:46;2.90;99.90
19970;DHT22;10146;47.754;9.566;2022-11-06T04:23:58;2.80;99.90
19970;DHT22;10146;47.754;9.566;2022-11-06T04:35:09;2.70;99.90
19970;DHT22;10146;47.754;9.566;2022-11-06T04:40:21;2.60;99.90
19970;DHT22;10146;47.754;9.566;2022-11-06T04:42:58;2.60;99.90
19970;DHT22;10146;47.754;9.566;2022-11-06T04:45:38;2.50;99.90
19970;DHT22;10146;47.754;9.566;2022-11-06T04:48:06;2.50;99.90
19970;DHT22;10146;47.754;9.566;2022-11-06T04:50:38;2.50;99.90
19970;DHT22;10146;47.754;9.566;2022-11-06T04:53:05;2.40;99.90
19970;DHT22;10146;47.754;9.566;2022-11-06T04:55:46;2.50;99.90
19970;DHT22;10146;47.754;9.566;2022-11-06T04:58:13;2.50;99.90
19970;DHT22;10146;47.754;9.566;2022-11-06T05:00:42;2.40;99.90
19970;DHT22;10146;47.754;9.566;2022-11-06T05:03:09;2.40;99.90
19970;DHT22;10146;47.754;9.566;2022-11-06T05:05:34;2.40;99.90
19970;DHT22;10146;47.754;9.566;2022-11-06T05:08:01;2.40;99.90
19970;DHT22;10146;47.754;9.566;2022-11-06T05:10:27;2.30;99.90
19970;DHT22;10146;47.754;9.566;2022-11-06T05:12:53;2.30;99.90
19970;DHT22;10146;47.754;9.566;2022-11-06T05:15:18;2.20;99.90
19970;DHT22;10146;47.754;9.566;2022-11-06T05:17:44;2.30;99.90
19970;DHT22;10146;47.754;9.566;2022-11-06T05:20:10;2.20;99.90
19970;DHT22;10146;47.754;9.566;2022-11-06T05:22:40;2.20;99.90
19970;DHT22;10146;47.754;9.566;2022-11-06T05:25:33;2.20;99.90
19970;DHT22;10146;47.754;9.566;2022-11-06T05:28:00;2.20;99.90
19970;DHT22;10146;47.754;9.566;2022-11-06T05:30:26;2.20;99.90
19970;DHT22;10146;47.754;9.566;2022-11-06T05:32:52;2.10;99.90
19970;DHT22;10146;47.754;9.566;2022-11-06T05:35:19;2.20;99.90
19970;DHT22;10146;47.754;9.566;2022-11-06T05:37:45;2.10;99.90
19970;DHT22;10146;47.754;9.566;2022-11-06T05:40:11;2.10;99.90
19970;DHT22;10146;47.754;9.566;2022-11-06T05:42:38;2.20;99.90
19970;DHT22;10146;47.754;9.566;2022-11-06T05:45:04;2.00;99.90
19970;DHT22;10146;47.754;9.566;2022-11-06T05:47:30;2.10;99.90
19970;DHT22;10146;47.754;9.566;2022-11-06T05:49:56;1.90;99.90
19970;DHT22;10146;47.754;9.566;2022-11-06T05:52:22;2.00;99.90
19970;DHT22;10146;47.754;9.566;2022-11-06T05:54:48;1.90;99.90
19970;DHT22;10146;47.754;9.566;2022-11-06T05:57:13;2.00;99.90
19970;DHT22;10146;47.754;9.566;2022-11-06T05:59:39;2.00;99.90
19970;DHT22;10146;47.754;9.566;2022-11-06T06:02:05;1.90;99.90
19970;DHT22;10146;47.754;9.566;2022-11-06T06:04:30;1.90;99.90
19970;DHT22;10146;47.754;9.566;2022-11-06T06:06:56;1.90;99.90
19970;DHT22;10146;47.754;9.566;2022-11-06T06:09:21;1.90;99.90
19970;DHT22;10146;47.754;9.566;2022-11-06T06:11:51;1.90;99.90
19970;DHT22;10146;47.754;9.566;2022-11-06T06:14:18;1.90;99.90
19970;DHT22;10146;47.754;9.566;2022-11-06T06:16:43;1.90;99.90
19970;DHT22;10146;47.754;9.566;2022-11-06T06:19:09;1.90;99.90
19970;DHT22;10146;47.754;9.566;2022-11-06T06:21:35;1.90;99.90
19970;DHT22;10146;47.754;9.566;2022-11-06T06:24:02;1.90;99.90
19970;DHT22;10146;47.754;9.566;2022-11-06T06:26:28;1.80;99.90
19970;DHT22;10146;47.754;9.566;2022-11-06T06:28:53;1.90;99.90
19970;DHT22;10146;47.754;9.566;2022-11-06T06:31:19;1.90;99.90
19970;DHT22;10146;47.754;9.566;2022-11-06T06:33:45;1.90;99.90
19970;DHT22;10146;47.754;9.566;2022-11-06T06:36:10;1.90;99.90
19970;DHT22;10146;47.754;9.566;2022-11-06T06:38:36;1.90;99.90
19970;DHT22;10146;47.754;9.566;2022-11-06T06:41:03;2.00;99.90
19970;DHT22;10146;47.754;9.566;2022-11-06T06:43:29;2.00;99.90
19970;DHT22;10146;47.754;9.566;2022-11-06T06:45:59;2.00;99.90
19970;DHT22;10146;47.754;9.566;2022-11-06T06:48:24;2.00;99.90
19970;DHT22;10146;47.754;9.566;2022-11-06T06:50:50;2.00;99.90
19970;DHT22;10146;47.754;9.566;2022-11-06T06:53:15;2.10;99.90
19970;DHT22;10146;47.754;9.566;2022-11-06T06:55:41;2.10;99.90
19970;DHT22;10146;47.754;9.566;2022-11-06T06:58:07;2.10;99.90
19970;DHT22;10146;47.754;9.566;2022-11-06T07:00:32;2.10;99.90
19970;DHT22;10146;47.754;9.566;2022-11-06T07:02:58;2.20;99.90
19970;DHT22;10146;47.754;9.566;2022-11-06T07:05:23;2.20;99.90
19970;DHT22;10146;47.754;9.566;2022-11-06T07:07:49;2.20;99.90
19970;DHT22;10146;47.754;9.566;2022-11-06T07:10:15;2.20;99.90
19970;DHT22;10146;47.754;9.566;2022-11-06T07:12:40;2.20;99.90
19970;DHT22;10146;47.754;9.566;2022-11-06T07:15:07;2.30;99.90
19970;DHT22;10146;47.754;9.566;2022-11-06T07:17:32;2.40;99.90
19970;DHT22;10146;47.754;9.566;2022-11-06T07:19:58;2.40;99.90
19970;DHT22;10146;47.754;9.566;2022-11-06T07:22:28;2.40;99.90
19970;DHT22;10146;47.754;9.566;2022-11-06T07:24:54;2.40;99.90
19970;DHT22;10146;47.754;9.566;2022-11-06T07:27:19;2.40;99.90
19970;DHT22;10146;47.754;9.566;2022-11-06T07:29:45;2.40;99.90
19970;DHT22;10146;47.754;9.566;2022-11-06T07:32:10;2.40;99.90
19970;DHT22;10146;47.754;9.566;2022-11-06T07:34:36;2.40;99.90
19970;DHT22;10146;47.754;9.566;2022-11-06T07:37:05;2.30;99.90
19970;DHT22;10146;47.754;9.566;2022-11-06T07:39:31;2.40;99.90
19970;DHT22;10146;47.754;9.566;2022-11-06T07:41:56;2.50;99.90
19970;DHT22;10146;47.754;9.566;2022-11-06T07:44:22;2.50;99.90
19970;DHT22;10146;47.754;9.566;2022-11-06T07:46:47;2.50;99.90
19970;DHT22;10146;47.754;9.566;2022-11-06T07:49:13;2.50;99.90
19970;DHT22;10146;47.754;9.566;2022-11-06T07:51:41;2.50;99.90
19970;DHT22;10146;47.754;9.566;2022-11-06T07:54:06;2.60;99.90
19970;DHT22;10146;47.754;9.566;2022-11-06T07:56:32;2.70;99.90
19970;DHT22;10146;47.754;9.566;2022-11-06T07:58:58;2.70;99.90
19970;DHT22;10146;47.754;9.566;2022-11-06T08:01:24;2.80;99.90
19970;DHT22;10146;47.754;9.566;2022-11-06T08:03:49;2.90;99.90
19970;DHT22;10146;47.754;9.566;2022-11-06T08:06:15;2.90;99.90
19970;DHT22;10146;47.754;9.566;2022-11-06T08:08:40;3.00;99.90
19970;DHT22;10146;47.754;9.566;2022-11-06T08:11:07;3.10;99.90
19970;DHT22;10146;47.754;9.566;2022-11-06T08:13:34;3.20;99.90
19970;DHT22;10146;47.754;9.566;2022-11-06T08:16:07;3.20;99.90
19970;DHT22;10146;47.754;9.566;2022-11-06T08:18:34;3.20;99.90
19970;DHT22;10146;47.754;9.566;2022-11-06T08:21:00;3.30;99.90
19970;DHT22;10146;47.754;9.566;2022-11-06T08:23:26;3.40;99.90
19970;DHT22;10146;47.754;9.566;2022-11-06T08:25:59;3.40;99.90
19970;DHT22;10146;47.754;9.566;2022-11-06T08:28:26;3.50;99.90
19970;DHT22;10146;47.754;9.566;2022-11-06T08:30:52;3.60;99.90
19970;DHT22;10146;47.754;9.566;2022-11-06T08:33:19;3.60;99.90
19970;DHT22;10146;47.754;9.566;2022-11-06T08:35:45;3.70;99.90
19970;DHT22;10146;47.754;9.566;2022-11-06T08:38:10;3.80;99.90
19970;DHT22;10146;47.754;9.566;2022-11-06T08:40:39;4.00;99.90
19970;DHT22;10146;47.754;9.566;2022-11-06T08:43:07;4.00;99.90
19970;DHT22;10146;47.754;9.566;2022-11-06T08:45:41;4.00;99.90
19970;DHT22;10146;47.754;9.566;2022-11-06T08:48:08;4.10;99.90
19970;DHT22;10146;47.754;9.566;2022-11-06T08:50:35;4.00;99.90
19970;DHT22;10146;47.754;9.566;2022-11-06T08:53:01;4.00;99.90
19970;DHT22;10146;47.754;9.566;2022-11-06T08:55:34;4.00;99.90
19970;DHT22;10146;47.754;9.566;2022-11-06T08:58:01;4.10;99.90
19970;DHT22;10146;47.754;9.566;2022-11-06T09:00:27;4.20;99.90
19970;DHT22;10146;47.754;9.566;2022-11-06T09:03:13;4.30;99.90
19970;DHT22;10146;47.754;9.566;2022-11-06T09:05:40;4.40;99.90
19970;DHT22;10146;47.754;9.566;2022-11-06T09:08:06;4.60;99.90
19970;DHT22;10146;47.754;9.566;2022-11-06T09:10:32;4.60;99.90
19970;DHT22;10146;47.754;9.566;2022-11-06T09:12:58;4.70;99.90
19970;DHT22;10146;47.754;9.566;2022-11-06T09:15:24;4.70;99.90
19970;DHT22;10146;47.754;9.566;2022-11-06T09:17:50;4.80;99.90
19970;DHT22;10146;47.754;9.566;2022-11-06T09:20:17;4.80;99.90
19970;DHT22;10146;47.754;9.566;2022-11-06T09:22:46;4.90;99.90
19970;DHT22;10146;47.754;9.566;2022-11-06T09:25:12;4.90;99.90
19970;DHT22;10146;47.754;9.566;2022-11-06T09:27:47;5.00;99.90
19970;DHT22;10146;47.754;9.566;2022-11-06T09:30:14;5.00;99.90
19970;DHT22;10146;47.754;9.566;2022-11-06T09:33:06;5.10;99.90
19970;DHT22;10146;47.754;9.566;2022-11-06T09:35:35;5.20;99.90
19970;DHT22;10146;47.754;9.566;2022-11-06T09:38:06;5.30;99.90
19970;DHT22;10146;47.754;9.566;2022-11-06T09:40:39;5.50;99.90
19970;DHT22;10146;47.754;9.566;2022-11-06T09:46:48;5.60;99.90
19970;DHT22;10146;47.754;9.566;2022-11-06T09:49:23;5.60;99.90
19970;DHT22;10146;47.754;9.566;2022-11-06T09:52:12;5.70;99.90
19970;DHT22;10146;47.754;9.566;2022-11-06T09:54:51;5.80;99.90
19970;DHT22;10146;47.754;9.566;2022-11-06T09:57:22;5.70;99.90
19970;DHT22;10146;47.754;9.566;2022-11-06T09:59:50;5.80;99.90
19970;DHT22;10146;47.754;9.566;2022-11-06T10:07:39;5.90;99.90
19970;DHT22;10146;47.754;9.566;2022-11-06T10:10:10;6.00;99.90
19970;DHT22;10146;47.754;9.566;2022-11-06T10:20:45;5.90;99.90
19970;DHT22;10146;47.754;9.566;2022-11-06T10:23:49;6.00;99.90
19970;DHT22;10146;47.754;9.566;2022-11-06T10:26:34;6.10;99.90
19970;DHT22;10146;47.754;9.566;2022-11-06T10:31:58;6.20;99.90
19970;DHT22;10146;47.754;9.566;2022-11-06T10:37:13;6.50;99.90
19970;DHT22;10146;47.754;9.566;2022-11-06T10:39:40;6.60;99.90
19970;DHT22;10146;47.754;9.566;2022-11-06T10:44:59;6.70;99.90
19970;DHT22;10146;47.754;9.566;2022-11-06T10:47:51;6.70;99.90
19970;DHT22;10146;47.754;9.566;2022-11-06T10:50:16;7.00;99.90
19970;DHT22;10146;47.754;9.566;2022-11-06T10:53:05;7.20;99.90
19970;DHT22;10146;47.754;9.566;2022-11-06T10:58:03;7.30;99.90
19970;DHT22;10146;47.754;9.566;2022-11-06T11:00:31;7.40;99.90
19970;DHT22;10146;47.754;9.566;2022-11-06T11:03:00;7.40;99.90
19970;DHT22;10146;47.754;9.566;2022-11-06T11:05:38;7.30;99.90
19970;DHT22;10146;47.754;9.566;2022-11-06T11:08:05;7.30;99.90
19970;DHT22;10146;47.754;9.566;2022-11-06T11:10:35;7.40;99.90
19970;DHT22;10146;47.754;9.566;2022-11-06T11:13:04;7.50;99.90
19970;DHT22;10146;47.754;9.566;2022-11-06T11:15:50;7.50;99.90
19970;DHT22;10146;47.754;9.566;2022-11-06T11:18:18;7.60;99.90
19970;DHT22;10146;47.754;9.566;2022-11-06T11:20:48;7.60;99.90
19970;DHT22;10146;47.754;9.566;2022-11-06T11:23:23;7.70;99.90
19970;DHT22;10146;47.754;9.566;2022-11-06T11:25:51;7.70;99.90
19970;DHT22;10146;47.754;9.566;2022-11-06T11:28:32;7.90;99.90
19970;DHT22;10146;47.754;9.566;2022-11-06T11:31:05;7.90;99.90
19970;DHT22;10146;47.754;9.566;2022-11-06T11:33:31;7.90;99.90
19970;DHT22;10146;47.754;9.566;2022-11-06T11:35:57;7.90;99.90
19970;DHT22;10146;47.754;9.566;2022-11-06T11:38:23;8.00;99.90
19970;DHT22;10146;47.754;9.566;2022-11-06T11:40:50;8.20;99.90
19970;DHT22;10146;47.754;9.566;2022-11-06T11:43:28;8.20;99.90
19970;DHT22;10146;47.754;9.566;2022-11-06T11:53:59;8.30;99.90
19970;DHT22;10146;47.754;9.566;2022-11-06T11:56:27;8.30;99.90
19970;DHT22;10146;47.754;9.566;2022-11-06T11:58:57;8.40;99.90
19970;DHT22;10146;47.754;9.566;2022-11-06T12:01:38;8.50;99.90
19970;DHT22;10146;47.754;9.566;2022-11-06T12:06:52;8.70;99.90
19970;DHT22;10146;47.754;9.566;2022-11-06T12:09:19;8.80;99.90
19970;DHT22;10146;47.754;9.566;2022-11-06T12:11:45;8.70;99.90
19970;DHT22;10146;47.754;9.566;2022-11-06T12:16:51;9.00;99.90
19970;DHT22;10146;47.754;9.566;2022-11-06T12:19:21;9.00;99.90
19970;DHT22;10146;47.754;9.566;2022-11-06T12:21:58;9.00;99.90
19970;DHT22;10146;47.754;9.566;2022-11-06T12:24:39;8.90;99.90
19970;DHT22;10146;47.754;9.566;2022-11-06T12:27:16;9.00;99.90
19970;DHT22;10146;47.754;9.566;2022-11-06T12:35:42;9.10;99.90
19970;DHT22;10146;47.754;9.566;2022-11-06T12:40:49;9.40;99.90
19970;DHT22;10146;47.754;9.566;2022-11-06T12:43:34;9.40;99.90
19970;DHT22;10146;47.754;9.566;2022-11-06T12:51:53;9.70;99.90
19970;DHT22;10146;47.754;9.566;2022-11-06T12:55:05;9.80;99.90
19970;DHT22;10146;47.754;9.566;2022-11-06T13:00:56;9.90;99.90
19970;DHT22;10146;47.754;9.566;2022-11-06T13:03:51;10.10;99.90
19970;DHT22;10146;47.754;9.566;2022-11-06T13:06:31;10.10;99.90
19970;DHT22;10146;47.754;9.566;2022-11-06T13:09:11;10.20;99.90
19970;DHT22;10146;47.754;9.566;2022-11-06T13:11:57;10.40;99.90
19970;DHT22;10146;47.754;9.566;2022-11-06T13:17:23;10.40;99.90
19970;DHT22;10146;47.754;9.566;2022-11-06T13:19:56;10.50;99.90
19970;DHT22;10146;47.754;9.566;2022-11-06T13:27:46;10.50;99.90
19970;DHT22;10146;47.754;9.566;2022-11-06T13:30:20;10.50;99.90
19970;DHT22;10146;47.754;9.566;2022-11-06T13:35:20;10.60;99.90
19970;DHT22;10146;47.754;9.566;2022-11-06T13:37:48;10.50;99.90
19970;DHT22;10146;47.754;9.566;2022-11-06T13:40:26;10.50;99.90
19970;DHT22;10146;47.754;9.566;2022-11-06T13:43:06;10.50;99.90
19970;DHT22;10146;47.754;9.566;2022-11-06T13:45:47;10.40;99.90
19970;DHT22;10146;47.754;9.566;2022-11-06T13:50:59;10.40;99.90
19970;DHT22;10146;47.754;9.566;2022-11-06T13:53:43;10.30;99.90
19970;DHT22;10146;47.754;9.566;2022-11-06T14:05:07;10.30;99.90
19970;DHT22;10146;47.754;9.566;2022-11-06T14:07:42;10.30;99.90
19970;DHT22;10146;47.754;9.566;2022-11-06T14:10:20;10.20;99.90
19970;DHT22;10146;47.754;9.566;2022-11-06T14:12:48;10.10;99.90
19970;DHT22;10146;47.754;9.566;2022-11-06T14:15:22;10.10;99.90
19970;DHT22;10146;47.754;9.566;2022-11-06T14:17:55;10.00;99.90
19970;DHT22;10146;47.754;9.566;2022-11-06T14:20:33;9.90;99.90
19970;DHT22;10146;47.754;9.566;2022-11-06T14:28:34;9.90;99.90
19970;DHT22;10146;47.754;9.566;2022-11-06T14:31:00;9.90;99.90
19970;DHT22;10146;47.754;9.566;2022-11-06T14:36:28;9.80;99.90
19970;DHT22;10146;47.754;9.566;2022-11-06T14:38:54;9.70;99.90
19970;DHT22;10146;47.754;9.566;2022-11-06T14:44:24;9.50;99.90
19970;DHT22;10146;47.754;9.566;2022-11-06T14:46:54;9.40;99.90
19970;DHT22;10146;47.754;9.566;2022-11-06T14:49:34;9.30;99.90
19970;DHT22;10146;47.754;9.566;2022-11-06T14:52:05;9.30;99.90
19970;DHT22;10146;47.754;9.566;2022-11-06T14:54:33;9.30;99.90
19970;DHT22;10146;47.754;9.566;2022-11-06T14:57:00;9.20;99.90
19970;DHT22;10146;47.754;9.566;2022-11-06T14:59:32;9.20;99.90
19970;DHT22;10146;47.754;9.566;2022-11-06T15:02:22;9.10;99.90
19970;DHT22;10146;47.754;9.566;2022-11-06T15:05:03;9.10;99.90
19970;DHT22;10146;47.754;9.566;2022-11-06T15:10:20;9.00;99.90
19970;DHT22;10146;47.754;9.566;2022-11-06T15:13:09;9.00;99.90
19970;DHT22;10146;47.754;9.566;2022-11-06T15:15:39;9.10;99.90
19970;DHT22;10146;47.754;9.566;2022-11-06T15:18:10;9.20;99.90
19970;DHT22;10146;47.754;9.566;2022-11-06T15:20:36;9.20;99.90
19970;DHT22;10146;47.754;9.566;2022-11-06T15:23:40;9.30;99.90
19970;DHT22;10146;47.754;9.566;2022-11-06T15:26:28;9.30;99.90
19970;DHT22;10146;47.754;9.566;2022-11-06T15:29:16;9.20;99.90
19970;DHT22;10146;47.754;9.566;2022-11-06T15:31:47;9.10;99.90
19970;DHT22;10146;47.754;9.566;2022-11-06T15:34:26;9.10;99.90
19970;DHT22;10146;47.754;9.566;2022-11-06T15:37:00;9.00;99.90
19970;DHT22;10146;47.754;9.566;2022-11-06T15:41:56;8.80;99.90
19970;DHT22;10146;47.754;9.566;2022-11-06T15:44:23;8.60;99.90
19970;DHT22;10146;47.754;9.566;2022-11-06T15:46:56;8.60;99.90
19970;DHT22;10146;47.754;9.566;2022-11-06T15:49:22;8.50;99.90
19970;DHT22;10146;47.754;9.566;2022-11-06T15:51:57;8.40;99.90
19970;DHT22;10146;47.754;9.566;2022-11-06T15:57:05;8.10;99.90
19970;DHT22;10146;47.754;9.566;2022-11-06T15:59:33;8.10;99.90
19970;DHT22;10146;47.754;9.566;2022-11-06T16:02:04;7.90;99.90
19970;DHT22;10146;47.754;9.566;2022-11-06T16:04:30;7.80;99.90
19970;DHT22;10146;47.754;9.566;2022-11-06T16:06:56;7.80;99.90
19970;DHT22;10146;47.754;9.566;2022-11-06T16:09:25;7.60;99.90
19970;DHT22;10146;47.754;9.566;2022-11-06T16:11:51;7.50;99.90
19970;DHT22;10146;47.754;9.566;2022-11-06T16:14:18;7.40;99.90
19970;DHT22;10146;47.754;9.566;2022-11-06T16:16:52;7.40;99.90
19970;DHT22;10146;47.754;9.566;2022-11-06T16:19:33;7.30;99.90
19970;DHT22;10146;47.754;9.566;2022-11-06T16:22:03;7.20;99.90
19970;DHT22;10146;47.754;9.566;2022-11-06T16:24:45;7.20;99.90
19970;DHT22;10146;47.754;9.566;2022-11-06T16:27:12;7.20;99.90
19970;DHT22;10146;47.754;9.566;2022-11-06T16:29:38;7.10;99.90
19970;DHT22;10146;47.754;9.566;2022-11-06T16:32:07;7.10;99.90
19970;DHT22;10146;47.754;9.566;2022-11-06T16:34:36;7.00;99.90
19970;DHT22;10146;47.754;9.566;2022-11-06T16:45:30;6.90;99.90
19970;DHT22;10146;47.754;9.566;2022-11-06T16:47:36;6.90;99.90
19970;DHT22;10146;47.754;9.566;2022-11-06T16:50:02;6.90;99.90
19970;DHT22;10146;47.754;9.566;2022-11-06T16:55:04;6.90;99.90
19970;DHT22;10146;47.754;9.566;2022-11-06T16:57:31;6.80;99.90
19970;DHT22;10146;47.754;9.566;2022-11-06T17:00:06;6.80;99.90
19970;DHT22;10146;47.754;9.566;2022-11-06T17:02:35;6.80;99.90
19970;DHT22;10146;47.754;9.566;2022-11-06T17:05:14;6.80;99.90
19970;DHT22;10146;47.754;9.566;2022-11-06T17:07:40;6.80;99.90
19970;DHT22;10146;47.754;9.566;2022-11-06T17:13:22;6.80;99.90
19970;DHT22;10146;47.754;9.566;2022-11-06T17:15:56;6.80;99.90
19970;DHT22;10146;47.754;9.566;2022-11-06T17:18:25;6.70;99.90
19970;DHT22;10146;47.754;9.566;2022-11-06T17:20:56;6.70;99.90
19970;DHT22;10146;47.754;9.566;2022-11-06T17:23:23;6.60;99.90
19970;DHT22;10146;47.754;9.566;2022-11-06T17:25:52;6.70;99.90
19970;DHT22;10146;47.754;9.566;2022-11-06T17:28:19;6.70;99.90
19970;DHT22;10146;47.754;9.566;2022-11-06T17:30:47;6.70;99.90
19970;DHT22;10146;47.754;9.566;2022-11-06T17:33:13;6.80;99.90
19970;DHT22;10146;47.754;9.566;2022-11-06T17:35:40;6.70;99.90
19970;DHT22;10146;47.754;9.566;2022-11-06T17:38:06;6.70;99.90
19970;DHT22;10146;47.754;9.566;2022-11-06T17:40:31;6.70;99.90
19970;DHT22;10146;47.754;9.566;2022-11-06T17:42:57;6.70;99.90
19970;DHT22;10146;47.754;9.566;2022-11-06T17:45:23;6.70;99.90
19970;DHT22;10146;47.754;9.566;2022-11-06T17:47:49;6.70;99.90
19970;DHT22;10146;47.754;9.566;2022-11-06T17:50:14;6.70;99.90
19970;DHT22;10146;47.754;9.566;2022-11-06T17:52:40;6.70;99.90
19970;DHT22;10146;47.754;9.566;2022-11-06T17:55:06;6.70;99.90
19970;DHT22;10146;47.754;9.566;2022-11-06T17:57:31;6.70;99.90
19970;DHT22;10146;47.754;9.566;2022-11-06T17:59:57;6.70;99.90
19970;DHT22;10146;47.754;9.566;2022-11-06T18:02:23;6.70;99.90
19970;DHT22;10146;47.754;9.566;2022-11-06T18:04:48;6.80;99.90
19970;DHT22;10146;47.754;9.566;2022-11-06T18:07:16;6.80;99.90
19970;DHT22;10146;47.754;9.566;2022-11-06T18:09:42;6.80;99.90
19970;DHT22;10146;47.754;9.566;2022-11-06T18:12:11;6.80;99.90
19970;DHT22;10146;47.754;9.566;2022-11-06T18:14:37;6.80;99.90
19970;DHT22;10146;47.754;9.566;2022-11-06T18:17:03;6.80;99.90
19970;DHT22;10146;47.754;9.566;2022-11-06T18:19:28;6.80;99.90
19970;DHT22;10146;47.754;9.566;2022-11-06T18:21:54;6.80;99.90
19970;DHT22;10146;47.754;9.566;2022-11-06T18:24:20;6.80;99.90
19970;DHT22;10146;47.754;9.566;2022-11-06T18:26:45;6.80;99.90
19970;DHT22;10146;47.754;9.566;2022-11-06T18:29:11;6.70;99.90
19970;DHT22;10146;47.754;9.566;2022-11-06T18:31:37;6.70;99.90
19970;DHT22;10146;47.754;9.566;2022-11-06T18:34:04;6.70;99.90
19970;DHT22;10146;47.754;9.566;2022-11-06T18:36:31;6.70;99.90
19970;DHT22;10146;47.754;9.566;2022-11-06T18:38:57;6.60;99.90